EPWA

Warsaw Chopin Airport

Warsaw, Poland
METAR EPWA 231200Z 24010G20KT 190V280 9999 -RA BKN016 06/05 Q1005 TEMPO 4500 RA BKN014
Observed Flight Rules
Oct-23 @ 12:00 UTC (26 minutes ago) Marginal Visual Flight Rules
Wind Visibility Clouds Conditions
240° at 10 knots
 Gusting to 20 knots
10,000+ meters
  • Broken at 1,600' AGL
  • Light Rain
Temperatures Readings
Current 6°C / 43°F
Dewpoint 5°C / 41°F
Humidity 93%
Altimeter 29.68" Hg
Pressure 1005 hPa
Elevation 107
METAR EPWA 231200Z 24010G20KT 190V280 9999 -RA BKN016 06/05 Q1005 TEMPO 4500 RA BKN014
Observed Flight Rules
Oct-23 @ 12:00 UTC
(26 minutes ago)
MVFR
Wind Visibility
240° at 10 knots
 Gusting to 20 knots
10,000+ meters
Clouds
  • Broken at 1,600' AGL
Conditions
  • Light Rain
Temperature Dewpoint
6°C / 43°F 5°C / 41°F
Humidity Altimeter Pressure
93% 29.68" Hg 1005 hPa